sensor_id;sensor_type;location;lat;lon;timestamp;P1;durP1;ratioP1;P2;durP2;ratioP2
33327;SDS011;19692;52.998;9.116;2023-02-28T00:01:19;12.93;;;7.70;;
33327;SDS011;19692;52.998;9.116;2023-02-28T00:03:44;10.83;;;7.87;;
33327;SDS011;19692;52.998;9.116;2023-02-28T00:06:10;10.83;;;7.63;;
33327;SDS011;19692;52.998;9.116;2023-02-28T00:08:36;12.37;;;8.87;;
33327;SDS011;19692;52.998;9.116;2023-02-28T00:11:07;12.47;;;8.50;;
33327;SDS011;19692;52.998;9.116;2023-02-28T00:13:36;13.67;;;8.60;;
33327;SDS011;19692;52.998;9.116;2023-02-28T00:16:06;12.40;;;8.47;;
33327;SDS011;19692;52.998;9.116;2023-02-28T00:18:35;11.37;;;8.70;;
33327;SDS011;19692;52.998;9.116;2023-02-28T00:21:01;13.30;;;9.20;;
33327;SDS011;19692;52.998;9.116;2023-02-28T00:23:27;11.47;;;8.20;;
33327;SDS011;19692;52.998;9.116;2023-02-28T00:25:53;13.60;;;9.67;;
33327;SDS011;19692;52.998;9.116;2023-02-28T00:28:19;10.93;;;8.73;;
33327;SDS011;19692;52.998;9.116;2023-02-28T00:30:45;12.27;;;8.10;;
33327;SDS011;19692;52.998;9.116;2023-02-28T00:33:10;10.03;;;7.93;;
33327;SDS011;19692;52.998;9.116;2023-02-28T00:35:36;13.73;;;8.73;;
33327;SDS011;19692;52.998;9.116;2023-02-28T00:38:02;10.77;;;8.70;;
33327;SDS011;19692;52.998;9.116;2023-02-28T00:40:28;12.17;;;8.33;;
33327;SDS011;19692;52.998;9.116;2023-02-28T00:42:54;13.73;;;8.43;;
33327;SDS011;19692;52.998;9.116;2023-02-28T00:45:20;11.63;;;8.63;;
33327;SDS011;19692;52.998;9.116;2023-02-28T00:47:46;12.23;;;8.47;;
33327;SDS011;19692;52.998;9.116;2023-02-28T00:50:14;11.17;;;8.43;;
33327;SDS011;19692;52.998;9.116;2023-02-28T00:52:44;11.20;;;9.27;;
33327;SDS011;19692;52.998;9.116;2023-02-28T00:55:09;14.90;;;8.27;;
33327;SDS011;19692;52.998;9.116;2023-02-28T00:57:36;12.17;;;9.13;;
33327;SDS011;19692;52.998;9.116;2023-02-28T01:00:02;11.70;;;8.63;;
33327;SDS011;19692;52.998;9.116;2023-02-28T01:02:29;10.47;;;7.97;;
33327;SDS011;19692;52.998;9.116;2023-02-28T01:04:55;12.47;;;9.07;;
33327;SDS011;19692;52.998;9.116;2023-02-28T01:07:21;15.00;;;9.10;;
33327;SDS011;19692;52.998;9.116;2023-02-28T01:09:48;14.73;;;8.53;;
33327;SDS011;19692;52.998;9.116;2023-02-28T01:12:14;16.65;;;11.73;;
33327;SDS011;19692;52.998;9.116;2023-02-28T01:14:40;17.23;;;10.83;;
33327;SDS011;19692;52.998;9.116;2023-02-28T01:17:06;15.60;;;9.33;;
33327;SDS011;19692;52.998;9.116;2023-02-28T01:19:32;15.83;;;9.60;;
33327;SDS011;19692;52.998;9.116;2023-02-28T01:22:00;13.17;;;8.37;;
33327;SDS011;19692;52.998;9.116;2023-02-28T01:24:30;13.30;;;7.90;;
33327;SDS011;19692;52.998;9.116;2023-02-28T01:26:56;13.13;;;8.20;;
33327;SDS011;19692;52.998;9.116;2023-02-28T01:29:22;12.27;;;8.53;;
33327;SDS011;19692;52.998;9.116;2023-02-28T01:31:47;12.00;;;7.67;;
33327;SDS011;19692;52.998;9.116;2023-02-28T01:34:13;11.43;;;7.50;;
33327;SDS011;19692;52.998;9.116;2023-02-28T01:36:39;11.87;;;7.60;;
33327;SDS011;19692;52.998;9.116;2023-02-28T01:39:05;13.33;;;7.27;;
33327;SDS011;19692;52.998;9.116;2023-02-28T01:41:31;11.87;;;7.33;;
33327;SDS011;19692;52.998;9.116;2023-02-28T01:44:06;11.60;;;6.93;;
33327;SDS011;19692;52.998;9.116;2023-02-28T01:47:14;11.43;;;7.67;;
33327;SDS011;19692;52.998;9.116;2023-02-28T01:49:40;13.50;;;7.50;;
33327;SDS011;19692;52.998;9.116;2023-02-28T01:52:06;10.70;;;7.43;;
33327;SDS011;19692;52.998;9.116;2023-02-28T01:54:39;10.73;;;7.40;;
33327;SDS011;19692;52.998;9.116;2023-02-28T01:57:13;10.23;;;7.20;;
33327;SDS011;19692;52.998;9.116;2023-02-28T02:02:17;10.10;;;7.30;;
33327;SDS011;19692;52.998;9.116;2023-02-28T02:04:50;11.23;;;6.77;;
33327;SDS011;19692;52.998;9.116;2023-02-28T02:07:43;11.83;;;6.97;;
33327;SDS011;19692;52.998;9.116;2023-02-28T02:10:13;8.87;;;6.90;;
33327;SDS011;19692;52.998;9.116;2023-02-28T02:15:32;11.33;;;7.00;;
33327;SDS011;19692;52.998;9.116;2023-02-28T02:21:24;9.80;;;7.23;;
33327;SDS011;19692;52.998;9.116;2023-02-28T02:30:21;12.73;;;7.00;;
33327;SDS011;19692;52.998;9.116;2023-02-28T02:33:18;9.80;;;6.73;;
33327;SDS011;19692;52.998;9.116;2023-02-28T02:36:22;10.27;;;6.30;;
33327;SDS011;19692;52.998;9.116;2023-02-28T02:40:02;10.63;;;6.27;;
33327;SDS011;19692;52.998;9.116;2023-02-28T02:42:27;11.43;;;6.03;;
33327;SDS011;19692;52.998;9.116;2023-02-28T02:45:11;10.00;;;5.73;;
33327;SDS011;19692;52.998;9.116;2023-02-28T02:47:44;11.17;;;5.73;;
33327;SDS011;19692;52.998;9.116;2023-02-28T02:50:16;10.87;;;6.00;;
33327;SDS011;19692;52.998;9.116;2023-02-28T02:52:48;10.33;;;5.60;;
33327;SDS011;19692;52.998;9.116;2023-02-28T02:55:20;7.90;;;5.30;;
33327;SDS011;19692;52.998;9.116;2023-02-28T02:57:55;9.73;;;5.53;;
33327;SDS011;19692;52.998;9.116;2023-02-28T03:00:28;6.97;;;5.70;;
33327;SDS011;19692;52.998;9.116;2023-02-28T03:02:59;8.10;;;4.83;;
33327;SDS011;19692;52.998;9.116;2023-02-28T03:05:39;8.53;;;4.77;;
33327;SDS011;19692;52.998;9.116;2023-02-28T03:08:11;7.17;;;5.20;;
33327;SDS011;19692;52.998;9.116;2023-02-28T03:10:38;9.57;;;5.60;;
33327;SDS011;19692;52.998;9.116;2023-02-28T03:13:13;6.80;;;5.17;;
33327;SDS011;19692;52.998;9.116;2023-02-28T03:21:56;9.07;;;5.13;;
33327;SDS011;19692;52.998;9.116;2023-02-28T03:32:42;7.17;;;5.40;;
33327;SDS011;19692;52.998;9.116;2023-02-28T03:35:36;5.93;;;5.00;;
33327;SDS011;19692;52.998;9.116;2023-02-28T03:38:35;9.90;;;5.53;;
33327;SDS011;19692;52.998;9.116;2023-02-28T03:41:10;7.87;;;5.40;;
33327;SDS011;19692;52.998;9.116;2023-02-28T03:43:43;11.47;;;5.03;;
33327;SDS011;19692;52.998;9.116;2023-02-28T03:46:16;9.27;;;5.37;;
33327;SDS011;19692;52.998;9.116;2023-02-28T03:49:11;9.80;;;5.70;;
33327;SDS011;19692;52.998;9.116;2023-02-28T03:51:40;8.17;;;5.27;;
33327;SDS011;19692;52.998;9.116;2023-02-28T03:57:10;7.80;;;5.53;;
33327;SDS011;19692;52.998;9.116;2023-02-28T03:59:50;8.07;;;5.63;;
33327;SDS011;19692;52.998;9.116;2023-02-28T04:02:25;7.80;;;5.10;;
33327;SDS011;19692;52.998;9.116;2023-02-28T04:04:50;7.13;;;5.30;;
33327;SDS011;19692;52.998;9.116;2023-02-28T04:07:16;10.73;;;5.43;;
33327;SDS011;19692;52.998;9.116;2023-02-28T04:09:42;8.03;;;5.20;;
33327;SDS011;19692;52.998;9.116;2023-02-28T04:12:09;7.33;;;5.23;;
33327;SDS011;19692;52.998;9.116;2023-02-28T04:14:34;8.13;;;5.20;;
33327;SDS011;19692;52.998;9.116;2023-02-28T04:17:00;7.83;;;5.20;;
33327;SDS011;19692;52.998;9.116;2023-02-28T04:19:26;7.90;;;4.83;;
33327;SDS011;19692;52.998;9.116;2023-02-28T04:21:52;8.17;;;6.43;;
33327;SDS011;19692;52.998;9.116;2023-02-28T04:24:22;7.27;;;4.87;;
33327;SDS011;19692;52.998;9.116;2023-02-28T04:26:53;7.80;;;5.70;;
33327;SDS011;19692;52.998;9.116;2023-02-28T04:29:22;7.00;;;5.40;;
33327;SDS011;19692;52.998;9.116;2023-02-28T04:31:57;9.50;;;5.43;;
33327;SDS011;19692;52.998;9.116;2023-02-28T04:34:29;8.77;;;5.27;;
33327;SDS011;19692;52.998;9.116;2023-02-28T04:36:56;7.83;;;5.10;;
33327;SDS011;19692;52.998;9.116;2023-02-28T04:39:23;8.60;;;5.03;;
33327;SDS011;19692;52.998;9.116;2023-02-28T04:41:49;8.10;;;5.20;;
33327;SDS011;19692;52.998;9.116;2023-02-28T04:44:16;6.37;;;5.37;;
33327;SDS011;19692;52.998;9.116;2023-02-28T04:46:42;8.70;;;5.43;;
33327;SDS011;19692;52.998;9.116;2023-02-28T04:49:09;6.43;;;5.47;;
33327;SDS011;19692;52.998;9.116;2023-02-28T04:51:36;7.87;;;5.10;;
33327;SDS011;19692;52.998;9.116;2023-02-28T04:54:02;7.80;;;4.87;;
33327;SDS011;19692;52.998;9.116;2023-02-28T04:56:28;7.00;;;5.03;;
33327;SDS011;19692;52.998;9.116;2023-02-28T04:58:54;8.30;;;5.50;;
33327;SDS011;19692;52.998;9.116;2023-02-28T05:01:21;7.43;;;5.80;;
33327;SDS011;19692;52.998;9.116;2023-02-28T05:03:56;10.40;;;6.10;;
33327;SDS011;19692;52.998;9.116;2023-02-28T05:06:24;8.50;;;5.40;;
33327;SDS011;19692;52.998;9.116;2023-02-28T05:08:52;8.70;;;5.37;;
33327;SDS011;19692;52.998;9.116;2023-02-28T05:11:19;8.40;;;6.13;;
33327;SDS011;19692;52.998;9.116;2023-02-28T05:13:49;8.57;;;5.60;;
33327;SDS011;19692;52.998;9.116;2023-02-28T08:32:16;11.80;;;7.50;;
33327;SDS011;19692;52.998;9.116;2023-02-28T08:34:42;7.77;;;6.67;;
33327;SDS011;19692;52.998;9.116;2023-02-28T08:37:07;13.33;;;6.87;;
33327;SDS011;19692;52.998;9.116;2023-02-28T08:39:34;8.43;;;7.53;;
33327;SDS011;19692;52.998;9.116;2023-02-28T08:42:01;8.07;;;6.50;;
33327;SDS011;19692;52.998;9.116;2023-02-28T08:44:28;8.27;;;6.47;;
33327;SDS011;19692;52.998;9.116;2023-02-28T08:46:53;10.07;;;6.43;;
33327;SDS011;19692;52.998;9.116;2023-02-28T08:49:19;12.03;;;6.50;;
33327;SDS011;19692;52.998;9.116;2023-02-28T08:51:45;7.17;;;6.07;;
33327;SDS011;19692;52.998;9.116;2023-02-28T08:54:11;7.83;;;5.13;;
33327;SDS011;19692;52.998;9.116;2023-02-28T08:56:38;7.77;;;4.67;;
33327;SDS011;19692;52.998;9.116;2023-02-28T08:59:04;5.43;;;4.93;;
33327;SDS011;19692;52.998;9.116;2023-02-28T09:01:30;7.43;;;4.73;;
33327;SDS011;19692;52.998;9.116;2023-02-28T09:03:57;6.47;;;4.37;;
33327;SDS011;19692;52.998;9.116;2023-02-28T09:06:24;5.53;;;4.73;;
33327;SDS011;19692;52.998;9.116;2023-02-28T09:08:52;6.23;;;5.00;;
33327;SDS011;19692;52.998;9.116;2023-02-28T09:11:18;6.30;;;4.30;;
33327;SDS011;19692;52.998;9.116;2023-02-28T09:13:44;4.03;;;3.67;;
33327;SDS011;19692;52.998;9.116;2023-02-28T09:16:12;5.73;;;3.30;;
33327;SDS011;19692;52.998;9.116;2023-02-28T09:18:41;4.57;;;3.37;;
33327;SDS011;19692;52.998;9.116;2023-02-28T09:21:11;4.30;;;3.30;;
33327;SDS011;19692;52.998;9.116;2023-02-28T09:23:42;5.23;;;3.80;;
33327;SDS011;19692;52.998;9.116;2023-02-28T09:26:16;5.73;;;4.00;;
33327;SDS011;19692;52.998;9.116;2023-02-28T09:28:51;4.00;;;3.30;;
33327;SDS011;19692;52.998;9.116;2023-02-28T09:31:19;4.13;;;3.20;;
33327;SDS011;19692;52.998;9.116;2023-02-28T09:33:51;4.80;;;3.20;;
33327;SDS011;19692;52.998;9.116;2023-02-28T09:36:20;4.10;;;3.67;;
33327;SDS011;19692;52.998;9.116;2023-02-28T09:38:48;3.90;;;3.30;;
33327;SDS011;19692;52.998;9.116;2023-02-28T09:41:25;4.07;;;3.10;;
33327;SDS011;19692;52.998;9.116;2023-02-28T09:43:57;3.90;;;3.10;;
33327;SDS011;19692;52.998;9.116;2023-02-28T09:46:35;2.93;;;2.43;;
33327;SDS011;19692;52.998;9.116;2023-02-28T09:49:19;3.23;;;2.50;;
33327;SDS011;19692;52.998;9.116;2023-02-28T09:51:50;2.90;;;2.33;;
33327;SDS011;19692;52.998;9.116;2023-02-28T09:54:30;3.83;;;2.20;;
33327;SDS011;19692;52.998;9.116;2023-02-28T10:11:56;3.20;;;2.20;;
33327;SDS011;19692;52.998;9.116;2023-02-28T10:14:28;2.27;;;2.07;;
33327;SDS011;19692;52.998;9.116;2023-02-28T10:16:58;2.93;;;2.03;;
33327;SDS011;19692;52.998;9.116;2023-02-28T10:25:15;2.90;;;2.00;;
33327;SDS011;19692;52.998;9.116;2023-02-28T10:27:48;3.23;;;2.10;;
33327;SDS011;19692;52.998;9.116;2023-02-28T10:30:18;3.80;;;2.50;;
33327;SDS011;19692;52.998;9.116;2023-02-28T10:32:47;2.20;;;2.00;;
33327;SDS011;19692;52.998;9.116;2023-02-28T10:35:19;3.03;;;2.17;;
33327;SDS011;19692;52.998;9.116;2023-02-28T10:37:54;6.13;;;2.30;;
33327;SDS011;19692;52.998;9.116;2023-02-28T10:43:04;3.03;;;2.73;;
33327;SDS011;19692;52.998;9.116;2023-02-28T10:46:02;3.30;;;2.20;;
33327;SDS011;19692;52.998;9.116;2023-02-28T10:51:16;4.13;;;3.73;;
33327;SDS011;19692;52.998;9.116;2023-02-28T10:53:52;2.43;;;2.10;;
33327;SDS011;19692;52.998;9.116;2023-02-28T10:56:21;3.40;;;2.30;;
33327;SDS011;19692;52.998;9.116;2023-02-28T11:01:37;5.00;;;2.80;;
33327;SDS011;19692;52.998;9.116;2023-02-28T11:07:20;2.90;;;1.90;;
33327;SDS011;19692;52.998;9.116;2023-02-28T11:09:49;2.17;;;1.60;;
33327;SDS011;19692;52.998;9.116;2023-02-28T11:12:28;4.03;;;2.10;;
33327;SDS011;19692;52.998;9.116;2023-02-28T11:15:03;2.67;;;2.00;;
33327;SDS011;19692;52.998;9.116;2023-02-28T11:17:56;2.27;;;1.70;;
33327;SDS011;19692;52.998;9.116;2023-02-28T11:20:28;2.07;;;1.80;;
33327;SDS011;19692;52.998;9.116;2023-02-28T11:22:57;1.90;;;1.80;;
33327;SDS011;19692;52.998;9.116;2023-02-28T11:25:30;2.73;;;1.80;;
33327;SDS011;19692;52.998;9.116;2023-02-28T11:28:42;2.37;;;2.00;;
33327;SDS011;19692;52.998;9.116;2023-02-28T11:36:22;1.70;;;1.60;;
33327;SDS011;19692;52.998;9.116;2023-02-28T11:38:59;2.27;;;1.70;;
33327;SDS011;19692;52.998;9.116;2023-02-28T11:47:03;1.83;;;1.73;;
33327;SDS011;19692;52.998;9.116;2023-02-28T11:49:45;2.67;;;1.90;;
33327;SDS011;19692;52.998;9.116;2023-02-28T11:52:43;2.00;;;1.80;;
33327;SDS011;19692;52.998;9.116;2023-02-28T11:55:20;3.90;;;3.00;;
33327;SDS011;19692;52.998;9.116;2023-02-28T12:06:45;2.53;;;1.90;;
33327;SDS011;19692;52.998;9.116;2023-02-28T12:09:39;2.10;;;1.90;;
33327;SDS011;19692;52.998;9.116;2023-02-28T12:20:38;2.43;;;2.00;;
33327;SDS011;19692;52.998;9.116;2023-02-28T12:29:25;2.80;;;1.93;;
33327;SDS011;19692;52.998;9.116;2023-02-28T12:31:58;2.07;;;1.90;;
33327;SDS011;19692;52.998;9.116;2023-02-28T12:34:33;2.30;;;1.73;;
33327;SDS011;19692;52.998;9.116;2023-02-28T12:37:06;1.80;;;1.70;;
33327;SDS011;19692;52.998;9.116;2023-02-28T12:39:39;3.50;;;1.90;;
33327;SDS011;19692;52.998;9.116;2023-02-28T12:42:10;2.90;;;1.90;;
33327;SDS011;19692;52.998;9.116;2023-02-28T12:44:52;2.13;;;1.93;;
33327;SDS011;19692;52.998;9.116;2023-02-28T12:47:24;2.40;;;2.20;;
33327;SDS011;19692;52.998;9.116;2023-02-28T12:49:54;2.40;;;1.70;;
33327;SDS011;19692;52.998;9.116;2023-02-28T12:52:28;1.83;;;1.70;;
33327;SDS011;19692;52.998;9.116;2023-02-28T12:58:19;4.87;;;2.00;;
33327;SDS011;19692;52.998;9.116;2023-02-28T13:07:13;2.93;;;2.57;;
33327;SDS011;19692;52.998;9.116;2023-02-28T13:09:55;3.37;;;1.70;;
33327;SDS011;19692;52.998;9.116;2023-02-28T13:12:25;2.57;;;2.20;;
33327;SDS011;19692;52.998;9.116;2023-02-28T13:14:51;2.63;;;2.30;;
33327;SDS011;19692;52.998;9.116;2023-02-28T13:17:48;2.10;;;1.90;;
33327;SDS011;19692;52.998;9.116;2023-02-28T13:20:20;2.77;;;2.20;;
33327;SDS011;19692;52.998;9.116;2023-02-28T13:22:48;1.83;;;1.63;;
33327;SDS011;19692;52.998;9.116;2023-02-28T13:26:04;2.10;;;1.90;;
33327;SDS011;19692;52.998;9.116;2023-02-28T13:28:12;2.70;;;2.00;;
33327;SDS011;19692;52.998;9.116;2023-02-28T13:31:14;3.43;;;2.07;;
33327;SDS011;19692;52.998;9.116;2023-02-28T13:36:29;2.57;;;2.20;;
33327;SDS011;19692;52.998;9.116;2023-02-28T13:38:57;1.67;;;1.57;;
33327;SDS011;19692;52.998;9.116;2023-02-28T13:51:48;2.20;;;1.90;;
33327;SDS011;19692;52.998;9.116;2023-02-28T13:57:02;1.77;;;1.67;;
33327;SDS011;19692;52.998;9.116;2023-02-28T13:59:46;1.87;;;1.77;;
33327;SDS011;19692;52.998;9.116;2023-02-28T14:05:17;2.23;;;1.90;;
33327;SDS011;19692;52.998;9.116;2023-02-28T14:07:50;3.17;;;1.90;;
33327;SDS011;19692;52.998;9.116;2023-02-28T14:12:57;2.50;;;2.00;;
33327;SDS011;19692;52.998;9.116;2023-02-28T14:18:41;2.30;;;2.10;;
33327;SDS011;19692;52.998;9.116;2023-02-28T14:21:20;4.57;;;2.13;;
33327;SDS011;19692;52.998;9.116;2023-02-28T14:24:02;2.40;;;2.23;;
33327;SDS011;19692;52.998;9.116;2023-02-28T14:26:56;2.60;;;1.97;;
33327;SDS011;19692;52.998;9.116;2023-02-28T14:32:49;2.27;;;1.70;;
33327;SDS011;19692;52.998;9.116;2023-02-28T14:38:21;2.80;;;2.07;;
33327;SDS011;19692;52.998;9.116;2023-02-28T14:40:52;3.90;;;2.20;;
33327;SDS011;19692;52.998;9.116;2023-02-28T14:43:24;2.00;;;1.80;;
33327;SDS011;19692;52.998;9.116;2023-02-28T14:45:54;2.70;;;1.93;;
33327;SDS011;19692;52.998;9.116;2023-02-28T14:48:23;2.33;;;2.10;;
33327;SDS011;19692;52.998;9.116;2023-02-28T14:50:52;2.10;;;1.80;;
33327;SDS011;19692;52.998;9.116;2023-02-28T14:53:23;2.70;;;2.07;;
33327;SDS011;19692;52.998;9.116;2023-02-28T14:55:56;2.10;;;1.90;;
33327;SDS011;19692;52.998;9.116;2023-02-28T14:58:26;2.47;;;2.23;;
33327;SDS011;19692;52.998;9.116;2023-02-28T15:00:56;3.13;;;2.40;;
33327;SDS011;19692;52.998;9.116;2023-02-28T15:03:34;2.73;;;2.20;;
33327;SDS011;19692;52.998;9.116;2023-02-28T15:06:04;2.03;;;1.83;;
33327;SDS011;19692;52.998;9.116;2023-02-28T15:08:37;2.73;;;2.13;;
33327;SDS011;19692;52.998;9.116;2023-02-28T15:11:12;2.40;;;2.10;;
33327;SDS011;19692;52.998;9.116;2023-02-28T15:13:44;3.03;;;2.37;;
33327;SDS011;19692;52.998;9.116;2023-02-28T15:16:16;4.70;;;2.13;;
33327;SDS011;19692;52.998;9.116;2023-02-28T15:18:49;2.97;;;2.23;;
33327;SDS011;19692;52.998;9.116;2023-02-28T15:21:19;2.87;;;2.40;;
33327;SDS011;19692;52.998;9.116;2023-02-28T15:23:56;3.67;;;2.40;;
33327;SDS011;19692;52.998;9.116;2023-02-28T15:26:32;2.20;;;2.00;;
33327;SDS011;19692;52.998;9.116;2023-02-28T15:29:06;2.27;;;2.07;;
33327;SDS011;19692;52.998;9.116;2023-02-28T15:31:41;3.03;;;2.23;;
33327;SDS011;19692;52.998;9.116;2023-02-28T15:34:21;3.30;;;2.17;;
33327;SDS011;19692;52.998;9.116;2023-02-28T15:40:05;2.57;;;2.20;;
33327;SDS011;19692;52.998;9.116;2023-02-28T15:42:43;3.13;;;2.30;;
33327;SDS011;19692;52.998;9.116;2023-02-28T15:45:47;3.43;;;2.90;;
33327;SDS011;19692;52.998;9.116;2023-02-28T15:48:18;3.13;;;2.67;;
33327;SDS011;19692;52.998;9.116;2023-02-28T15:50:49;3.43;;;2.40;;
33327;SDS011;19692;52.998;9.116;2023-02-28T15:53:26;3.97;;;2.90;;
33327;SDS011;19692;52.998;9.116;2023-02-28T15:56:13;3.40;;;2.30;;
33327;SDS011;19692;52.998;9.116;2023-02-28T15:59:01;4.07;;;2.57;;
33327;SDS011;19692;52.998;9.116;2023-02-28T16:01:32;2.70;;;2.50;;
33327;SDS011;19692;52.998;9.116;2023-02-28T16:04:02;2.63;;;2.10;;
33327;SDS011;19692;52.998;9.116;2023-02-28T16:06:42;3.30;;;2.63;;
33327;SDS011;19692;52.998;9.116;2023-02-28T16:09:11;4.60;;;2.87;;
33327;SDS011;19692;52.998;9.116;2023-02-28T16:11:43;3.77;;;2.83;;
33327;SDS011;19692;52.998;9.116;2023-02-28T16:14:25;4.37;;;2.70;;
33327;SDS011;19692;52.998;9.116;2023-02-28T16:16:55;7.20;;;3.17;;
33327;SDS011;19692;52.998;9.116;2023-02-28T16:19:28;4.20;;;3.10;;
33327;SDS011;19692;52.998;9.116;2023-02-28T16:21:54;3.83;;;2.90;;
33327;SDS011;19692;52.998;9.116;2023-02-28T16:24:20;4.70;;;3.30;;
33327;SDS011;19692;52.998;9.116;2023-02-28T16:26:46;4.27;;;3.00;;
33327;SDS011;19692;52.998;9.116;2023-02-28T16:29:33;4.50;;;2.87;;
33327;SDS011;19692;52.998;9.116;2023-02-28T16:32:01;6.70;;;3.50;;
33327;SDS011;19692;52.998;9.116;2023-02-28T16:34:30;5.03;;;2.73;;
33327;SDS011;19692;52.998;9.116;2023-02-28T16:36:56;5.07;;;2.70;;
33327;SDS011;19692;52.998;9.116;2023-02-28T16:39:23;3.20;;;2.43;;
33327;SDS011;19692;52.998;9.116;2023-02-28T16:41:49;5.93;;;2.60;;
33327;SDS011;19692;52.998;9.116;2023-02-28T16:44:23;2.83;;;2.40;;
33327;SDS011;19692;52.998;9.116;2023-02-28T16:46:55;3.40;;;2.27;;
33327;SDS011;19692;52.998;9.116;2023-02-28T16:49:21;3.43;;;2.43;;
33327;SDS011;19692;52.998;9.116;2023-02-28T16:51:49;5.07;;;2.60;;
33327;SDS011;19692;52.998;9.116;2023-02-28T16:54:15;2.60;;;2.20;;
33327;SDS011;19692;52.998;9.116;2023-02-28T16:56:42;2.97;;;2.40;;
33327;SDS011;19692;52.998;9.116;2023-02-28T16:59:10;4.43;;;2.20;;
33327;SDS011;19692;52.998;9.116;2023-02-28T17:01:37;4.90;;;2.70;;
33327;SDS011;19692;52.998;9.116;2023-02-28T17:04:03;4.80;;;2.77;;
33327;SDS011;19692;52.998;9.116;2023-02-28T17:06:29;6.87;;;4.80;;
33327;SDS011;19692;52.998;9.116;2023-02-28T17:08:55;4.50;;;3.70;;
33327;SDS011;19692;52.998;9.116;2023-02-28T17:11:23;4.93;;;3.03;;
33327;SDS011;19692;52.998;9.116;2023-02-28T17:13:50;2.97;;;2.67;;
33327;SDS011;19692;52.998;9.116;2023-02-28T17:16:29;3.87;;;2.90;;
33327;SDS011;19692;52.998;9.116;2023-02-28T17:19:01;3.57;;;2.57;;
33327;SDS011;19692;52.998;9.116;2023-02-28T17:21:29;3.93;;;2.87;;
33327;SDS011;19692;52.998;9.116;2023-02-28T17:23:56;4.23;;;2.50;;
33327;SDS011;19692;52.998;9.116;2023-02-28T17:26:22;4.07;;;2.50;;
33327;SDS011;19692;52.998;9.116;2023-02-28T17:28:52;3.63;;;2.50;;
33327;SDS011;19692;52.998;9.116;2023-02-28T17:31:21;2.63;;;2.43;;
33327;SDS011;19692;52.998;9.116;2023-02-28T17:33:48;5.60;;;2.93;;
33327;SDS011;19692;52.998;9.116;2023-02-28T17:36:14;4.63;;;2.47;;
33327;SDS011;19692;52.998;9.116;2023-02-28T17:38:46;5.73;;;2.50;;
33327;SDS011;19692;52.998;9.116;2023-02-28T17:41:13;3.67;;;2.13;;
33327;SDS011;19692;52.998;9.116;2023-02-28T17:43:39;6.13;;;2.60;;
33327;SDS011;19692;52.998;9.116;2023-02-28T17:46:05;2.33;;;2.13;;
33327;SDS011;19692;52.998;9.116;2023-02-28T17:48:39;3.47;;;2.40;;
33327;SDS011;19692;52.998;9.116;2023-02-28T17:51:05;4.20;;;2.37;;
33327;SDS011;19692;52.998;9.116;2023-02-28T17:53:31;5.47;;;2.57;;
33327;SDS011;19692;52.998;9.116;2023-02-28T17:55:56;3.80;;;2.50;;
33327;SDS011;19692;52.998;9.116;2023-02-28T17:58:22;3.60;;;2.20;;
33327;SDS011;19692;52.998;9.116;2023-02-28T18:00:48;3.67;;;2.50;;
33327;SDS011;19692;52.998;9.116;2023-02-28T18:03:18;6.77;;;5.37;;
33327;SDS011;19692;52.998;9.116;2023-02-28T18:05:45;3.93;;;3.10;;
33327;SDS011;19692;52.998;9.116;2023-02-28T18:08:11;5.07;;;2.50;;
33327;SDS011;19692;52.998;9.116;2023-02-28T18:10:38;3.93;;;3.23;;
33327;SDS011;19692;52.998;9.116;2023-02-28T18:13:04;5.87;;;2.43;;
33327;SDS011;19692;52.998;9.116;2023-02-28T18:15:30;4.30;;;3.90;;
33327;SDS011;19692;52.998;9.116;2023-02-28T18:17:55;2.43;;;2.10;;
33327;SDS011;19692;52.998;9.116;2023-02-28T18:20:21;3.10;;;2.33;;
33327;SDS011;19692;52.998;9.116;2023-02-28T18:22:47;4.83;;;2.33;;
33327;SDS011;19692;52.998;9.116;2023-02-28T18:25:13;6.10;;;2.43;;
33327;SDS011;19692;52.998;9.116;2023-02-28T18:27:40;4.47;;;2.40;;
33327;SDS011;19692;52.998;9.116;2023-02-28T18:30:18;3.40;;;2.30;;
33327;SDS011;19692;52.998;9.116;2023-02-28T18:32:45;3.23;;;2.40;;
33327;SDS011;19692;52.998;9.116;2023-02-28T18:35:11;2.97;;;2.50;;
33327;SDS011;19692;52.998;9.116;2023-02-28T18:37:37;4.57;;;2.40;;
33327;SDS011;19692;52.998;9.116;2023-02-28T18:40:03;3.37;;;2.27;;
33327;SDS011;19692;52.998;9.116;2023-02-28T18:42:30;3.20;;;2.60;;
33327;SDS011;19692;52.998;9.116;2023-02-28T18:44:56;3.60;;;2.53;;
33327;SDS011;19692;52.998;9.116;2023-02-28T18:47:22;8.13;;;3.53;;
33327;SDS011;19692;52.998;9.116;2023-02-28T18:49:47;5.23;;;3.00;;
33327;SDS011;19692;52.998;9.116;2023-02-28T18:52:13;4.97;;;2.70;;
33327;SDS011;19692;52.998;9.116;2023-02-28T18:54:39;4.77;;;2.90;;
33327;SDS011;19692;52.998;9.116;2023-02-28T18:57:04;6.53;;;3.47;;
33327;SDS011;19692;52.998;9.116;2023-02-28T18:59:30;4.17;;;2.90;;
33327;SDS011;19692;52.998;9.116;2023-02-28T19:01:56;3.83;;;2.87;;
33327;SDS011;19692;52.998;9.116;2023-02-28T19:04:22;2.70;;;2.50;;
33327;SDS011;19692;52.998;9.116;2023-02-28T19:06:48;5.20;;;3.13;;
33327;SDS011;19692;52.998;9.116;2023-02-28T19:09:14;5.37;;;3.40;;
33327;SDS011;19692;52.998;9.116;2023-02-28T19:11:39;6.63;;;3.20;;
33327;SDS011;19692;52.998;9.116;2023-02-28T19:14:05;4.47;;;3.10;;
33327;SDS011;19692;52.998;9.116;2023-02-28T19:16:33;3.10;;;2.80;;
33327;SDS011;19692;52.998;9.116;2023-02-28T19:18:59;4.27;;;2.93;;
33327;SDS011;19692;52.998;9.116;2023-02-28T19:21:25;3.83;;;2.83;;
33327;SDS011;19692;52.998;9.116;2023-02-28T19:23:51;5.30;;;2.87;;
33327;SDS011;19692;52.998;9.116;2023-02-28T19:26:19;4.00;;;2.80;;
33327;SDS011;19692;52.998;9.116;2023-02-28T19:28:50;4.33;;;3.00;;
33327;SDS011;19692;52.998;9.116;2023-02-28T19:31:20;3.23;;;2.77;;
33327;SDS011;19692;52.998;9.116;2023-02-28T19:33:48;5.30;;;2.93;;
33327;SDS011;19692;52.998;9.116;2023-02-28T19:36:16;6.20;;;2.80;;
33327;SDS011;19692;52.998;9.116;2023-02-28T19:38:42;3.33;;;3.03;;
33327;SDS011;19692;52.998;9.116;2023-02-28T19:41:10;5.13;;;2.87;;
33327;SDS011;19692;52.998;9.116;2023-02-28T19:43:37;4.90;;;4.05;;
33327;SDS011;19692;52.998;9.116;2023-02-28T19:46:03;5.03;;;2.80;;
33327;SDS011;19692;52.998;9.116;2023-02-28T19:48:30;4.43;;;3.17;;
33327;SDS011;19692;52.998;9.116;2023-02-28T19:51:04;4.43;;;3.10;;
33327;SDS011;19692;52.998;9.116;2023-02-28T19:53:37;4.90;;;4.23;;
33327;SDS011;19692;52.998;9.116;2023-02-28T19:56:04;3.93;;;2.83;;
33327;SDS011;19692;52.998;9.116;2023-02-28T19:58:31;4.03;;;2.73;;
33327;SDS011;19692;52.998;9.116;2023-02-28T20:00:58;4.87;;;3.20;;
33327;SDS011;19692;52.998;9.116;2023-02-28T20:03:36;4.27;;;3.33;;
33327;SDS011;19692;52.998;9.116;2023-02-28T20:06:04;3.87;;;3.47;;
33327;SDS011;19692;52.998;9.116;2023-02-28T20:08:33;5.07;;;3.33;;
33327;SDS011;19692;52.998;9.116;2023-02-28T20:11:02;4.10;;;3.40;;
33327;SDS011;19692;52.998;9.116;2023-02-28T20:13:39;4.40;;;3.40;;
33327;SDS011;19692;52.998;9.116;2023-02-28T20:16:06;5.30;;;3.93;;
33327;SDS011;19692;52.998;9.116;2023-02-28T20:18:35;4.90;;;4.37;;
33327;SDS011;19692;52.998;9.116;2023-02-28T20:21:06;3.60;;;3.10;;
33327;SDS011;19692;52.998;9.116;2023-02-28T20:23:34;4.90;;;3.87;;
33327;SDS011;19692;52.998;9.116;2023-02-28T20:26:01;5.10;;;3.50;;
33327;SDS011;19692;52.998;9.116;2023-02-28T20:28:28;5.80;;;3.90;;
33327;SDS011;19692;52.998;9.116;2023-02-28T20:30:54;7.00;;;3.90;;
33327;SDS011;19692;52.998;9.116;2023-02-28T20:33:19;5.43;;;3.80;;
33327;SDS011;19692;52.998;9.116;2023-02-28T20:35:45;5.53;;;4.20;;
33327;SDS011;19692;52.998;9.116;2023-02-28T20:38:13;6.97;;;4.60;;
33327;SDS011;19692;52.998;9.116;2023-02-28T20:40:38;6.63;;;3.90;;
33327;SDS011;19692;52.998;9.116;2023-02-28T20:43:04;6.43;;;3.97;;
33327;SDS011;19692;52.998;9.116;2023-02-28T20:45:30;4.80;;;4.10;;
33327;SDS011;19692;52.998;9.116;2023-02-28T20:47:56;6.07;;;3.63;;